Time;durP1;ratioP1;P1;durP2;ratioP2;P2;SDS_P1;SDS_P2;PMS_P1;PMS_P2;Temp;Humidity;BMP_temperature;BMP_pressure;BME280_temperature;BME280_humidity;BME280_pressure;Samples;Min_cycle;Max_cycle;Signal;HPM_P1;HPM_P2
2022/05/21 00:00:15;;;;;;;21.07;18.83;;;;;;;20.57;100.00;98637.28;2034288;29;20471;-72
2022/05/21 00:01:17;;;;;;;20.97;19.03;;;;;;;20.65;100.00;98647.06;2034489;29;20432;-72
2022/05/21 00:02:20;;;;;;;20.63;19.03;;;;;;;20.76;100.00;98647.16;2035038;29;20427;-71
2022/05/21 00:03:22;;;;;;;20.67;19.27;;;;;;;20.81;100.00;98636.75;2033949;29;20519;-71
2022/05/21 00:04:24;;;;;;;20.40;18.80;;;;;;;20.96;100.00;98642.31;2026548;29;20436;-72
2022/05/21 00:05:28;;;;;;;22.00;20.17;;;;;;;21.07;100.00;98648.59;2026636;29;20195;-71
2022/05/21 00:06:30;;;;;;;21.27;19.37;;;;;;;21.06;100.00;98653.22;2034618;29;20478;-72
2022/05/21 00:07:31;;;;;;;21.00;19.03;;;;;;;21.19;100.00;98653.69;2035004;29;20839;-71
2022/05/21 00:08:33;;;;;;;20.03;18.33;;;;;;;21.39;100.00;98654.28;2034908;29;20436;-71
2022/05/21 00:09:33;;;;;;;20.23;18.43;;;;;;;21.56;100.00;98675.34;2034227;29;20685;-72
2022/05/21 00:10:38;;;;;;;20.13;18.37;;;;;;;21.63;100.00;98661.81;2034326;29;20786;-72
2022/05/21 00:11:39;;;;;;;20.10;18.20;;;;;;;21.70;100.00;98661.03;2034178;29;20200;-72
2022/05/21 00:12:43;;;;;;;20.67;19.03;;;;;;;21.75;100.00;98663.41;2034279;29;20419;-71
2022/05/21 00:13:45;;;;;;;20.90;18.93;;;;;;;21.82;100.00;98682.47;2025964;29;20467;-71
2022/05/21 00:14:47;;;;;;;21.43;18.37;;;;;;;21.85;100.00;98673.56;2026655;29;20512;-73
2022/05/21 00:15:47;;;;;;;21.67;18.40;;;;;;;21.91;100.00;98665.81;2034931;29;20498;-71
2022/05/21 00:16:51;;;;;;;20.13;18.07;;;;;;;21.90;100.00;98675.91;2033483;29;20456;-71
2022/05/21 00:17:53;;;;;;;19.73;18.17;;;;;;;21.89;100.00;98674.38;2034243;29;20224;-71
2022/05/21 00:18:56;;;;;;;19.87;18.30;;;;;;;21.91;100.00;98676.69;2035123;29;20505;-71
2022/05/21 00:19:57;;;;;;;19.13;17.83;;;;;;;21.90;100.00;98675.91;2035031;29;20518;-72
2022/05/21 00:20:59;;;;;;;22.27;18.00;;;;;;;21.87;100.00;98676.66;2033537;29;20458;-71
2022/05/21 00:22:00;;;;;;;20.13;18.63;;;;;;;21.87;100.00;98665.78;2034023;29;20270;-71
2022/05/21 00:23:09;;;;;;;19.50;17.53;;;;;;;21.82;100.00;98678.97;2032917;29;20520;-71
2022/05/21 00:24:11;;;;;;;19.73;18.00;;;;;;;21.75;100.00;98673.50;2034344;29;20184;-71
2022/05/21 00:25:14;;;;;;;21.67;17.27;;;;;;;21.66;100.00;98679.28;2025698;29;20806;-72
2022/05/21 00:26:23;;;;;;;19.20;17.57;;;;;;;21.57;100.00;98648.97;2018760;29;20524;-71
2022/05/21 00:27:25;;;;;;;18.77;17.30;;;;;;;21.45;100.00;98653.53;2018901;29;20458;-72
2022/05/21 00:28:28;;;;;;;17.90;16.67;;;;;;;21.35;100.00;98640.66;2026039;29;20520;-71
2022/05/21 00:29:28;;;;;;;19.27;17.30;;;;;;;21.32;100.00;98649.56;2034093;29;20950;-71
2022/05/21 00:30:32;;;;;;;18.33;17.00;;;;;;;21.25;100.00;98654.91;2034698;29;20870;-71
2022/05/21 00:31:35;;;;;;;18.53;17.30;;;;;;;21.10;100.00;98650.53;2034933;29;20542;-71
2022/05/21 00:32:37;;;;;;;17.63;16.50;;;;;;;20.95;100.00;98641.53;2026333;29;20495;-71
2022/05/21 00:33:41;;;;;;;17.57;16.30;;;;;;;20.84;100.00;98638.69;2026469;29;20455;-71
2022/05/21 00:34:42;;;;;;;17.67;16.57;;;;;;;20.80;100.00;98610.00;2034698;29;20439;-71
2022/05/21 00:35:44;;;;;;;18.80;17.20;;;;;;;20.70;100.00;98606.06;2034480;29;20490;-71
2022/05/21 00:36:45;;;;;;;18.50;17.30;;;;;;;20.59;100.00;98588.94;2033738;29;20231;-71
2022/05/21 00:37:46;;;;;;;18.40;17.10;;;;;;;20.53;100.00;98585.00;2026210;29;20547;-71
2022/05/21 00:38:48;;;;;;;18.17;16.30;;;;;;;20.44;100.00;98603.50;2026522;29;20432;-72
2022/05/21 00:39:50;;;;;;;17.67;16.27;;;;;;;20.37;100.00;98616.94;2034115;29;20250;-71
2022/05/21 00:40:53;;;;;;;18.13;16.70;;;;;;;20.33;100.00;98614.97;2033926;29;20444;-71
2022/05/21 00:41:54;;;;;;;18.30;17.00;;;;;;;20.28;100.00;98596.34;2026200;29;20453;-71
2022/05/21 00:42:56;;;;;;;18.43;17.23;;;;;;;20.24;100.00;98584.69;2026273;29;20986;-71
2022/05/21 00:43:58;;;;;;;17.60;16.40;;;;;;;20.23;100.00;98583.09;2033970;29;20686;-71
2022/05/21 00:44:59;;;;;;;18.03;16.67;;;;;;;20.17;100.00;98554.81;2034011;29;20479;-71
2022/05/21 00:46:02;;;;;;;18.20;16.90;;;;;;;20.15;100.00;98551.69;2034588;29;20456;-71
2022/05/21 00:47:04;;;;;;;17.20;16.10;;;;;;;20.29;100.00;98559.19;2034604;29;20807;-71
2022/05/21 00:48:07;;;;;;;16.40;15.40;;;;;;;20.21;100.00;98561.03;2034765;29;20443;-71
2022/05/21 00:49:10;;;;;;;17.03;15.60;;;;;;;20.12;100.00;98555.16;2026098;29;20464;-71
2022/05/21 00:50:15;;;;;;;16.97;15.60;;;;;;;20.08;100.00;98551.63;2026397;29;20463;-73
2022/05/21 00:51:20;;;;;;;16.90;15.70;;;;;;;20.05;100.00;98555.06;2033603;29;20456;-72
2022/05/21 00:52:24;;;;;;;17.40;16.10;;;;;;;20.05;100.00;98571.31;2033904;29;20475;-72
2022/05/21 00:53:25;;;;;;;18.00;16.20;;;;;;;20.08;100.00;98575.22;2033974;29;20492;-71
2022/05/21 00:54:31;;;;;;;17.63;16.30;;;;;;;20.04;100.00;98567.06;2025993;29;20493;-71
2022/05/21 00:55:32;;;;;;;17.47;16.20;;;;;;;20.00;100.00;98563.53;2026821;29;20224;-72
2022/05/21 00:56:38;;;;;;;17.20;16.00;;;;;;;20.00;100.00;98572.44;2034531;29;20491;-71
2022/05/21 00:57:41;;;;;;;17.00;15.90;;;;;;;19.98;100.00;98571.22;2026127;29;20449;-72
2022/05/21 01:00:10;;;;;;;17.97;16.30;;;;;;;19.95;100.00;98566.56;2034612;29;20400;-71
2022/05/21 01:01:12;;;;;;;17.50;16.40;;;;;;;19.90;100.00;98566.91;2034688;29;20428;-72
2022/05/21 01:02:17;;;;;;;17.50;16.30;;;;;;;19.86;100.00;98563.38;2026012;29;20464;-71
2022/05/21 01:03:20;;;;;;;17.87;16.40;;;;;;;19.84;100.00;98544.00;2026790;29;20436;-73
2022/05/21 01:04:21;;;;;;;17.23;16.13;;;;;;;19.85;100.00;98551.75;2033808;29;20456;-72
2022/05/21 01:05:27;;;;;;;17.10;15.70;;;;;;;19.82;100.00;98555.22;2034051;29;20435;-72
2022/05/21 01:06:29;;;;;;;16.97;15.73;;;;;;;19.81;100.00;98550.16;2025599;29;20715;-71
2022/05/21 01:07:31;;;;;;;17.07;15.90;;;;;;;19.80;100.00;98548.59;2026155;29;20437;-71
2022/05/21 01:08:32;;;;;;;16.80;15.80;;;;;;;19.74;100.00;98540.03;2025296;29;20475;-72
2022/05/21 01:09:35;;;;;;;17.30;15.90;;;;;;;19.70;100.00;98542.69;2018235;29;20529;-72
2022/05/21 01:10:44;;;;;;;16.90;15.90;;;;;;;19.72;100.00;98536.91;2027298;29;20181;-72
2022/05/21 01:11:46;;;;;;;17.37;16.27;;;;;;;19.68;100.00;98536.09;2033735;29;20458;-72
2022/05/21 01:12:50;;;;;;;17.07;15.97;;;;;;;19.63;100.00;98533.69;2025965;29;20955;-71
2022/05/21 01:13:53;;;;;;;17.63;16.43;;;;;;;19.62;100.00;98532.94;2026563;29;20429;-72
2022/05/21 01:14:56;;;;;;;17.60;16.30;;;;;;;19.62;100.00;98532.94;2034395;29;20435;-72
2022/05/21 01:15:59;;;;;;;17.90;16.50;;;;;;;19.58;100.00;98529.41;2034532;29;20784;-73
2022/05/21 01:17:01;;;;;;;18.47;16.77;;;;;;;19.58;100.00;98536.75;2034409;29;20451;-71
2022/05/21 01:18:07;;;;;;;18.10;16.73;;;;;;;19.58;100.00;98537.53;2034386;29;20487;-71
2022/05/21 01:19:10;;;;;;;18.27;17.17;;;;;;;19.53;100.00;98542.44;2034391;29;20499;-72
2022/05/21 01:20:18;;;;;;;17.70;16.20;;;;;;;19.50;100.00;98549.38;2025909;29;20527;-72
2022/05/21 01:21:18;;;;;;;17.33;16.13;;;;;;;19.46;100.00;98540.44;2026577;29;20472;-72
2022/05/21 01:22:28;;;;;;;16.73;15.63;;;;;;;19.44;100.00;98545.44;2034337;29;20527;-72
2022/05/21 01:23:29;;;;;;;18.40;16.70;;;;;;;19.42;100.00;98545.03;2034384;29;20184;-72
2022/05/21 01:24:31;;;;;;;17.33;16.20;;;;;;;19.38;100.00;98545.00;2034298;29;20530;-72
2022/05/21 01:25:34;;;;;;;17.73;16.63;;;;;;;19.39;100.00;98537.66;2034463;29;20442;-72
2022/05/21 01:26:38;;;;;;;18.77;17.10;;;;;;;19.36;100.00;98538.38;2034331;29;20504;-72
2022/05/21 01:27:44;;;;;;;17.70;16.60;;;;;;;19.34;100.00;98527.13;2033231;29;20456;-71
2022/05/21 01:28:47;;;;;;;17.57;16.17;;;;;;;19.36;100.00;98536.44;2033860;29;20942;-71
2022/05/21 01:29:50;;;;;;;17.20;15.93;;;;;;;19.32;100.00;98535.63;2025763;29;20846;-72
2022/05/21 01:30:56;;;;;;;17.83;16.37;;;;;;;19.28;100.00;98532.06;2026336;29;20511;-72
2022/05/21 01:31:57;;;;;;;17.60;16.40;;;;;;;19.26;100.00;98528.97;2033187;29;20456;-72
2022/05/21 01:32:59;;;;;;;17.67;16.30;;;;;;;19.30;100.00;98534.44;2033670;29;20526;-72
2022/05/21 01:34:01;;;;;;;17.60;16.30;;;;;;;19.27;100.00;98533.22;2034399;29;20199;-72
2022/05/21 01:35:03;;;;;;;17.70;16.43;;;;;;;19.30;100.00;98537.94;2032829;29;20547;-71
2022/05/21 01:36:06;;;;;;;17.40;16.00;;;;;;;19.27;100.00;98535.94;2025447;29;20492;-71
2022/05/21 01:37:09;;;;;;;17.80;16.40;;;;;;;19.34;100.00;98537.97;2026178;29;20401;-72
2022/05/21 01:38:15;;;;;;;16.77;15.50;;;;;;;19.31;100.00;98539.47;2026426;29;20460;-71
2022/05/21 01:39:18;;;;;;;17.97;16.57;;;;;;;19.31;100.00;98538.69;2026417;29;20429;-72
2022/05/21 01:40:19;;;;;;;17.80;16.57;;;;;;;19.27;100.00;98543.28;2026532;29;20935;-71
2022/05/21 01:41:23;;;;;;;17.30;16.20;;;;;;;19.30;100.00;98545.25;2033561;29;20818;-72
2022/05/21 01:42:24;;;;;;;16.63;15.33;;;;;;;19.29;100.00;98549.91;2026152;29;20208;-72
2022/05/21 01:44:52;;;;;;;17.27;16.07;;;;;;;19.26;100.00;98547.13;2026553;29;20607;-72
2022/05/21 01:45:53;;;;;;;17.47;16.37;;;;;;;19.24;100.00;98542.09;2032823;29;20971;-71
2022/05/21 01:46:55;;;;;;;17.73;16.50;;;;;;;19.22;100.00;98543.59;2033605;29;20792;-72
2022/05/21 01:47:57;;;;;;;18.40;17.20;;;;;;;19.18;100.00;98547.03;2025791;29;20208;-72
2022/05/21 01:49:00;;;;;;;19.17;17.80;;;;;;;19.17;100.00;98540.06;2025571;29;20477;-71
2022/05/21 01:50:00;;;;;;;17.77;16.67;;;;;;;19.17;100.00;98545.47;2033561;29;20443;-71
2022/05/21 01:51:05;;;;;;;17.70;16.60;;;;;;;19.13;100.00;98541.94;2026015;29;20524;-72
2022/05/21 01:52:09;;;;;;;18.27;16.73;;;;;;;19.12;100.00;98543.09;2026493;29;20409;-72
2022/05/21 01:53:10;;;;;;;17.67;16.67;;;;;;;19.11;100.00;98535.31;2033488;29;20978;-72
2022/05/21 01:54:14;;;;;;;17.40;16.40;;;;;;;19.12;100.00;98537.69;2033482;29;20534;-71
2022/05/21 01:55:15;;;;;;;17.90;16.80;;;;;;;19.10;100.00;98542.66;2033310;29;20446;-72
2022/05/21 01:56:17;;;;;;;17.67;16.57;;;;;;;19.06;100.00;98531.03;2026251;29;20476;-71
2022/05/21 01:57:17;;;;;;;17.10;16.10;;;;;;;19.06;100.00;98541.84;2026330;29;20437;-72
2022/05/21 01:58:20;;;;;;;17.63;16.43;;;;;;;19.04;100.00;98536.03;2026328;29;20437;-72
2022/05/21 01:59:21;;;;;;;17.33;16.03;;;;;;;19.02;100.00;98542.91;2026337;29;20203;-72
2022/05/21 02:00:23;;;;;;;17.33;16.27;;;;;;;18.99;100.00;98544.44;2026349;29;20433;-71
2022/05/21 02:01:27;;;;;;;16.90;15.90;;;;;;;18.98;100.00;98544.81;2033122;29;20247;-72
2022/05/21 02:02:29;;;;;;;17.07;15.77;;;;;;;18.97;100.00;98551.34;2033130;29;21100;-72
2022/05/21 02:03:30;;;;;;;17.50;16.20;;;;;;;18.94;100.00;98544.75;2033433;29;20503;-72
2022/05/21 02:04:32;;;;;;;16.87;15.70;;;;;;;18.91;100.00;98548.94;2033639;29;20436;-72
2022/05/21 02:05:33;;;;;;;16.97;15.87;;;;;;;18.94;100.00;98550.16;2026271;29;20433;-71
2022/05/21 02:06:36;;;;;;;17.20;16.00;;;;;;;18.91;100.00;98553.59;2033162;29;20462;-71
2022/05/21 02:07:37;;;;;;;17.10;16.00;;;;;;;18.90;100.00;98557.44;2033337;29;20459;-71
2022/05/21 02:08:41;;;;;;;16.63;15.60;;;;;;;18.87;100.00;98548.13;2033700;29;20438;-72
2022/05/21 02:09:45;;;;;;;16.90;15.80;;;;;;;18.86;100.00;98556.59;2033430;29;20568;-71
2022/05/21 02:10:47;;;;;;;16.57;15.57;;;;;;;18.83;100.00;98550.00;2033312;29;20566;-71
2022/05/21 02:11:49;;;;;;;16.57;15.40;;;;;;;18.86;100.00;98540.38;2025008;29;20971;-72
2022/05/21 02:12:50;;;;;;;16.73;15.53;;;;;;;18.82;100.00;98543.03;2025825;29;20955;-72
2022/05/21 02:13:51;;;;;;;16.67;15.57;;;;;;;18.83;100.00;98554.63;2033163;29;20819;-71
2022/05/21 02:14:52;;;;;;;16.80;15.57;;;;;;;18.82;100.00;98556.53;2033570;29;20195;-72
2022/05/21 02:15:56;;;;;;;16.80;15.60;;;;;;;18.81;100.00;98551.50;2026194;29;20498;-71
2022/05/21 02:16:57;;;;;;;17.20;16.00;;;;;;;18.78;100.00;98557.66;2026473;29;20204;-71
2022/05/21 02:17:59;;;;;;;17.13;16.00;;;;;;;18.76;100.00;98547.16;2026268;29;20432;-71
2022/05/21 02:19:03;;;;;;;16.97;15.70;;;;;;;18.74;100.00;98543.28;2026491;29;20197;-72
2022/05/21 02:20:07;;;;;;;16.93;15.83;;;;;;;18.76;100.00;98543.69;2026253;29;21018;-72
2022/05/21 02:21:09;;;;;;;17.17;15.97;;;;;;;18.76;100.00;98549.09;2025754;29;20472;-71
2022/05/21 02:22:10;;;;;;;17.70;16.40;;;;;;;18.78;100.00;98544.91;2026462;29;20427;-72
2022/05/21 02:23:12;;;;;;;17.17;15.97;;;;;;;18.77;100.00;98554.16;2026248;29;20439;-72
2022/05/21 02:24:14;;;;;;;17.00;15.70;;;;;;;18.76;100.00;98543.69;2024931;29;20316;-72
2022/05/21 02:25:17;;;;;;;17.10;15.73;;;;;;;18.74;100.00;98543.28;2017940;29;20528;-71
2022/05/21 02:26:20;;;;;;;16.73;15.53;;;;;;;18.71;100.00;98544.78;2025879;29;20432;-71
2022/05/21 02:27:21;;;;;;;16.23;15.23;;;;;;;18.72;100.00;98556.38;2025627;29;20460;-71
2022/05/21 02:28:23;;;;;;;16.43;15.40;;;;;;;18.74;100.00;98543.28;2025769;29;20960;-72
2022/05/21 02:29:25;;;;;;;16.50;15.50;;;;;;;18.68;100.00;98537.41;2025240;29;20224;-72
2022/05/21 02:30:34;;;;;;;17.50;15.93;;;;;;;18.67;100.00;98543.94;2025964;29;20440;-71
2022/05/21 02:31:36;;;;;;;17.50;16.30;;;;;;;18.69;100.00;98540.91;2026270;29;20468;-70
2022/05/21 02:32:36;;;;;;;17.43;16.30;;;;;;;18.69;100.00;98532.78;2026248;29;20436;-71
2022/05/21 02:33:38;;;;;;;17.17;15.90;;;;;;;18.71;100.00;98533.19;2026285;29;20531;-71
2022/05/21 02:34:40;;;;;;;18.17;16.47;;;;;;;18.66;100.00;98539.69;2026243;29;20538;-73
2022/05/21 02:35:42;;;;;;;16.43;15.40;;;;;;;18.64;100.00;98531.13;2032929;29;20527;-70
2022/05/21 02:39:29;;;;;;;16.70;15.43;;;;;;;18.61;100.00;98535.34;2017070;29;20441;-70
2022/05/21 02:40:33;;;;;;;16.10;15.13;;;;;;;18.61;100.00;98526.47;2009901;29;20446;-73
2022/05/21 02:41:35;;;;;;;16.73;15.73;;;;;;;18.58;100.00;98525.25;2015653;29;20980;-72
2022/05/21 02:42:47;;;;;;;16.93;15.83;;;;;;;18.56;100.00;98511.31;2017961;29;20448;-73
2022/05/21 02:43:49;;;;;;;16.93;15.73;;;;;;;18.50;100.00;98515.47;2027102;29;20421;-73
2022/05/21 02:44:57;;;;;;;16.83;15.60;;;;;;;18.50;100.00;98515.47;2033900;29;20470;-72
2022/05/21 02:45:59;;;;;;;17.60;15.90;;;;;;;18.48;100.00;98511.56;2034225;29;20415;-72
2022/05/21 02:47:00;;;;;;;17.97;15.40;;;;;;;18.48;100.00;98517.75;2026448;29;20547;-73
2022/05/21 02:48:02;;;;;;;17.00;15.70;;;;;;;18.46;100.00;98516.56;2027164;29;20196;-73
2022/05/21 02:49:05;;;;;;;16.20;15.00;;;;;;;18.40;100.00;98518.78;2035709;29;20435;-73
2022/05/21 02:50:09;;;;;;;15.70;14.60;;;;;;;18.40;100.00;98521.47;2035670;29;20439;-72
2022/05/21 02:51:12;;;;;;;16.20;15.10;;;;;;;18.40;100.00;98521.47;2035158;29;20974;-73
2022/05/21 02:52:15;;;;;;;16.27;15.17;;;;;;;18.39;100.00;98522.63;2035448;29;20503;-72
2022/05/21 02:53:20;;;;;;;16.30;15.10;;;;;;;18.35;100.00;98522.56;2035406;29;20439;-73
2022/05/21 02:54:21;;;;;;;16.47;15.10;;;;;;;18.32;100.00;98525.97;2035466;29;20943;-72
2022/05/21 02:55:23;;;;;;;15.97;14.70;;;;;;;18.30;100.00;98516.69;2034841;29;20889;-73
2022/05/21 02:56:25;;;;;;;16.17;15.10;;;;;;;18.26;100.00;98519.34;2034876;29;20223;-73
2022/05/21 02:57:28;;;;;;;17.00;15.70;;;;;;;18.24;100.00;98526.22;2035692;29;20435;-72
2022/05/21 02:58:30;;;;;;;16.70;15.57;;;;;;;18.24;100.00;98520.81;2035396;29;20443;-72
2022/05/21 02:59:32;;;;;;;16.97;15.77;;;;;;;18.26;100.00;98523.94;2035577;29;20431;-73
2022/05/21 03:00:33;;;;;;;16.60;15.50;;;;;;;18.27;100.00;98525.50;2026941;29;20453;-72
2022/05/21 03:01:34;;;;;;;16.73;15.47;;;;;;;18.28;100.00;98533.25;2027225;29;20465;-73
2022/05/21 03:02:36;;;;;;;16.70;15.40;;;;;;;18.29;100.00;98529.41;2035597;29;20219;-72
2022/05/21 03:03:38;;;;;;;17.47;16.07;;;;;;;18.31;100.00;98537.13;2034322;29;20467;-72
2022/05/21 03:04:40;;;;;;;16.60;15.50;;;;;;;18.30;100.00;98532.88;2026218;29;20448;-73
2022/05/21 03:05:45;;;;;;;17.67;15.97;;;;;;;18.30;100.00;98535.59;2027237;29;20481;-72
2022/05/21 03:06:46;;;;;;;16.90;15.57;;;;;;;18.30;100.00;98530.19;2035277;29;21026;-73
2022/05/21 03:07:49;;;;;;;17.27;15.97;;;;;;;18.31;100.00;98539.84;2035350;29;20820;-72
2022/05/21 03:10:22;;;;;;;17.23;16.07;;;;;;;18.39;100.00;98536.13;2035076;29;20416;-72
2022/05/21 03:11:24;;;;;;;17.57;16.37;;;;;;;18.37;100.00;98535.72;2035436;29;20882;-72
2022/05/21 03:12:29;;;;;;;17.33;16.13;;;;;;;18.40;100.00;98536.91;2026977;29;20445;-73
2022/05/21 03:13:34;;;;;;;17.23;16.03;;;;;;;18.42;100.00;98540.00;2027952;29;20955;-72
2022/05/21 03:14:36;;;;;;;17.90;16.60;;;;;;;18.44;100.00;98535.84;2026827;29;20456;-73
2022/05/21 03:15:39;;;;;;;17.40;16.20;;;;;;;18.44;100.00;98538.53;2026951;29;20439;-72
2022/05/21 03:16:40;;;;;;;17.10;15.90;;;;;;;18.44;100.00;98545.88;2026668;29;20557;-72
2022/05/21 03:17:42;;;;;;;17.50;16.30;;;;;;;18.45;100.00;98542.78;2019199;29;20449;-72
2022/05/21 03:18:43;;;;;;;17.60;16.07;;;;;;;18.49;100.00;98540.91;2019145;29;20361;-72
2022/05/21 03:19:47;;;;;;;17.50;16.03;;;;;;;18.51;100.00;98551.38;2027234;29;20433;-72
2022/05/21 03:20:48;;;;;;;17.50;16.30;;;;;;;18.51;100.00;98546.75;2035321;29;20282;-72
2022/05/21 03:21:49;;;;;;;17.80;16.53;;;;;;;18.55;100.00;98552.22;2034188;29;20545;-72
2022/05/21 03:22:51;;;;;;;18.27;16.87;;;;;;;18.55;100.00;98544.88;2034699;29;20440;-73
2022/05/21 03:23:55;;;;;;;17.60;16.30;;;;;;;18.55;100.00;98549.50;2035295;29;20475;-73
2022/05/21 03:24:57;;;;;;;17.57;16.43;;;;;;;18.58;100.00;98546.84;2035015;29;20636;-73
2022/05/21 03:26:02;;;;;;;17.57;16.27;;;;;;;18.59;100.00;98548.44;2034616;29;20843;-72
2022/05/21 03:27:07;;;;;;;17.97;16.57;;;;;;;18.59;100.00;98547.63;2034124;29;20753;-72
2022/05/21 03:28:14;;;;;;;18.53;16.43;;;;;;;18.62;100.00;98536.91;2034689;29;20428;-73
2022/05/21 03:29:16;;;;;;;17.93;16.50;;;;;;;18.61;100.00;98538.06;2035220;29;20803;-72
2022/05/21 03:30:22;;;;;;;17.67;16.43;;;;;;;18.62;100.00;98538.81;2035224;29;20440;-73
2022/05/21 03:31:24;;;;;;;17.87;16.53;;;;;;;18.60;100.00;98547.28;2034073;29;20454;-72
2022/05/21 03:32:26;;;;;;;18.87;17.50;;;;;;;18.63;100.00;98543.09;2034772;29;20527;-72
2022/05/21 03:33:29;;;;;;;18.50;16.90;;;;;;;18.68;100.00;98548.22;2035152;29;20809;-73
2022/05/21 03:34:29;;;;;;;18.27;16.90;;;;;;;18.72;100.00;98556.38;2034487;29;20451;-73
2022/05/21 03:35:33;;;;;;;18.07;16.77;;;;;;;18.74;100.00;98548.69;2034534;29;20978;-72
2022/05/21 03:36:36;;;;;;;18.03;16.90;;;;;;;18.68;100.00;98540.13;2034056;29;20722;-72
2022/05/21 03:37:38;;;;;;;18.10;16.67;;;;;;;18.69;100.00;98552.47;2034575;29;20788;-72
2022/05/21 03:38:40;;;;;;;18.23;16.83;;;;;;;18.76;100.00;98566.09;2035035;29;20459;-73
2022/05/21 03:39:43;;;;;;;18.13;16.73;;;;;;;18.75;100.00;98548.31;2035110;29;20443;-72
2022/05/21 03:40:48;;;;;;;17.93;16.70;;;;;;;18.76;100.00;98547.16;2035330;29;20450;-72
2022/05/21 03:41:49;;;;;;;18.90;17.17;;;;;;;18.82;100.00;98540.31;2034427;29;20455;-72
2022/05/21 03:42:54;;;;;;;18.37;17.03;;;;;;;18.82;100.00;98545.72;2034197;29;20617;-72
2022/05/21 03:43:55;;;;;;;18.23;17.03;;;;;;;18.84;100.00;98545.34;2034486;29;20948;-73
2022/05/21 03:45:00;;;;;;;17.90;16.70;;;;;;;18.85;100.00;98545.03;2035083;29;20626;-72
2022/05/21 03:46:02;;;;;;;19.47;17.60;;;;;;;18.87;100.00;98542.72;2035108;29;20440;-72
2022/05/21 03:47:07;;;;;;;18.57;16.97;;;;;;;18.88;100.00;98547.00;2026585;29;20459;-72
2022/05/21 03:48:11;;;;;;;18.73;17.30;;;;;;;18.89;100.00;98556.66;2027039;29;20476;-72
2022/05/21 03:49:16;;;;;;;18.53;17.23;;;;;;;18.91;100.00;98553.59;2034762;29;20411;-72
2022/05/21 03:50:19;;;;;;;18.27;17.07;;;;;;;18.96;100.00;98566.81;2026516;29;20523;-73
2022/05/21 03:51:29;;;;;;;19.13;17.20;;;;;;;19.01;100.00;98558.38;2018019;29;20481;-72
2022/05/21 03:52:30;;;;;;;17.97;16.67;;;;;;;19.03;100.00;98561.50;2027242;29;20448;-72
2022/05/21 03:53:33;;;;;;;19.10;17.60;;;;;;;19.03;100.00;98569.63;2034575;29;20864;-72
2022/05/21 03:54:36;;;;;;;18.70;17.27;;;;;;;19.05;100.00;98563.84;2035090;29;20527;-72
2022/05/21 03:55:38;;;;;;;18.90;17.20;;;;;;;19.05;100.00;98570.03;2035455;29;20526;-73
2022/05/21 03:56:39;;;;;;;18.90;17.50;;;;;;;19.08;100.00;98558.47;2034946;29;20471;-72
2022/05/21 03:57:43;;;;;;;18.70;17.20;;;;;;;19.12;100.00;98570.13;2034760;29;20438;-72
2022/05/21 03:58:47;;;;;;;18.73;17.40;;;;;;;19.17;100.00;98563.63;2033517;29;20471;-70
2022/05/21 03:59:48;;;;;;;18.90;17.50;;;;;;;19.15;100.00;98555.88;2034522;29;20432;-72
2022/05/21 04:00:52;;;;;;;18.47;17.07;;;;;;;19.22;100.00;98570.66;2034281;29;20455;-72
2022/05/21 04:01:53;;;;;;;18.27;16.87;;;;;;;19.30;100.00;98572.31;2034412;29;20447;-73
2022/05/21 04:02:56;;;;;;;18.03;16.77;;;;;;;19.27;100.00;98562.19;2034939;29;20530;-72
2022/05/21 04:03:58;;;;;;;18.43;16.90;;;;;;;19.29;100.00;98557.22;2034917;29;20428;-73
2022/05/21 04:05:01;;;;;;;18.27;16.87;;;;;;;19.33;100.00;98568.88;2034852;29;20522;-72
2022/05/21 04:06:03;;;;;;;17.87;16.57;;;;;;;19.34;100.00;98565.78;2025136;29;20212;-72
2022/05/21 04:07:05;;;;;;;18.63;17.13;;;;;;;19.34;100.00;98586.66;2026899;29;20405;-72
2022/05/21 04:08:08;;;;;;;18.87;17.27;;;;;;;19.40;100.00;98568.97;2034896;29;20440;-73
2022/05/21 04:09:10;;;;;;;18.13;16.90;;;;;;;19.39;100.00;98559.28;2033709;29;20464;-72
2022/05/21 04:10:14;;;;;;;18.23;16.93;;;;;;;19.39;100.00;98562.00;2034253;29;20822;-72
2022/05/21 04:11:16;;;;;;;20.43;17.20;;;;;;;19.40;100.00;98556.22;2034372;29;20511;-73
2022/05/21 04:12:18;;;;;;;19.57;17.63;;;;;;;19.39;100.00;98559.28;2026476;29;20456;-73
2022/05/21 04:13:20;;;;;;;19.23;17.53;;;;;;;19.43;100.00;98573.63;2026812;29;20431;-72
2022/05/21 04:14:27;;;;;;;19.50;17.63;;;;;;;19.48;100.00;98567.91;2025754;29;20453;-73
2022/05/21 04:15:31;;;;;;;18.77;17.03;;;;;;;19.47;100.00;98569.06;2027193;29;20483;-72
2022/05/21 04:16:32;;;;;;;19.80;17.77;;;;;;;19.49;100.00;98569.47;2034208;29;20475;-72
2022/05/21 04:17:33;;;;;;;18.73;17.23;;;;;;;19.47;100.00;98561.72;2034820;29;20432;-73
2022/05/21 04:18:35;;;;;;;19.23;17.70;;;;;;;19.46;100.00;98571.00;2034179;29;20208;-72
2022/05/21 04:19:39;;;;;;;19.33;17.70;;;;;;;19.48;100.00;98562.50;2034286;29;20953;-72
2022/05/21 04:20:41;;;;;;;19.53;17.97;;;;;;;19.46;100.00;98573.69;2026019;29;20520;-72
2022/05/21 04:21:43;;;;;;;19.20;17.53;;;;;;;19.46;100.00;98571.00;2026032;29;20457;-72
2022/05/21 04:22:46;;;;;;;19.50;17.67;;;;;;;19.49;100.00;98566.75;2026323;29;20465;-72
2022/05/21 04:23:46;;;;;;;19.83;17.77;;;;;;;19.46;100.00;98567.50;2026523;29;20933;-73
2022/05/21 04:24:48;;;;;;;19.30;17.90;;;;;;;19.44;100.00;98565.16;2034162;29;20448;-72
2022/05/21 04:25:49;;;;;;;18.93;17.40;;;;;;;19.48;100.00;98571.41;2026295;29;20681;-72
2022/05/21 04:26:52;;;;;;;18.50;17.03;;;;;;;19.47;100.00;98563.66;2018564;29;20544;-72
2022/05/21 04:27:53;;;;;;;18.87;17.43;;;;;;;19.49;100.00;98558.66;2026683;29;20819;-72
2022/05/21 04:29:01;;;;;;;20.77;18.17;;;;;;;19.51;100.00;98552.88;2034686;29;20469;-72
2022/05/21 04:30:09;;;;;;;19.10;17.70;;;;;;;19.52;100.00;98560.59;2034887;29;20179;-71
2022/05/21 04:31:11;;;;;;;19.80;18.20;;;;;;;19.55;100.00;98567.25;2034967;29;20440;-72
2022/05/21 04:32:11;;;;;;;19.97;18.23;;;;;;;19.55;100.00;98565.31;2034718;29;20444;-72
2022/05/21 04:33:13;;;;;;;19.23;17.67;;;;;;;19.58;100.00;98564.59;2034846;29;20464;-72
2022/05/21 04:34:15;;;;;;;20.10;18.57;;;;;;;19.58;100.00;98569.22;2026241;29;20234;-72
2022/05/21 04:35:17;;;;;;;19.80;18.13;;;;;;;19.59;100.00;98563.44;2026348;29;20556;-72
2022/05/21 04:36:19;;;;;;;19.90;18.13;;;;;;;19.63;100.00;98564.25;2025566;29;20532;-72
2022/05/21 04:37:23;;;;;;;19.53;18.00;;;;;;;19.59;100.00;98568.84;2026292;29;20436;-72
2022/05/21 04:38:25;;;;;;;19.80;18.37;;;;;;;19.62;100.00;98572.75;2034699;29;20208;-72
2022/05/21 04:39:27;;;;;;;19.33;17.83;;;;;;;19.63;100.00;98572.38;2034608;29;20462;-73
2022/05/21 04:40:30;;;;;;;19.13;17.43;;;;;;;19.63;100.00;98566.97;2026180;29;20456;-72
2022/05/21 04:41:32;;;;;;;19.33;17.70;;;;;;;19.61;100.00;98565.78;2026576;29;20630;-72
2022/05/21 04:42:33;;;;;;;19.30;17.67;;;;;;;19.59;100.00;98585.09;2034682;29;20473;-72
2022/05/21 04:43:37;;;;;;;18.73;17.43;;;;;;;19.58;100.00;98580.81;2033687;29;20475;-71
2022/05/21 04:44:41;;;;;;;19.80;17.87;;;;;;;19.58;100.00;98586.25;2033919;29;20215;-72
2022/05/21 04:45:43;;;;;;;19.00;17.60;;;;;;;19.58;100.00;98591.66;2025653;29;20500;-72
2022/05/21 04:46:48;;;;;;;19.00;17.53;;;;;;;19.58;100.00;98577.34;2026283;29;20494;-72
2022/05/21 04:47:49;;;;;;;18.70;17.30;;;;;;;19.57;100.00;98586.63;2034696;29;20447;-72
2022/05/21 04:48:52;;;;;;;18.83;17.30;;;;;;;19.48;100.00;98586.84;2034560;29;20475;-72
2022/05/21 04:49:53;;;;;;;19.73;17.63;;;;;;;19.40;100.00;98587.91;2034592;29;20914;-72
2022/05/21 04:50:59;;;;;;;19.03;17.20;;;;;;;19.35;100.00;98601.72;2033524;29;20843;-72
2022/05/21 04:52:02;;;;;;;18.83;17.30;;;;;;;19.27;100.00;98600.06;2034319;29;20172;-71